sensor_id;sensor_type;location;lat;lon;timestamp;pressure;altitude;pressure_sealevel;temperature;humidity
57900;BME280;60605;53.716;19.940;2023-04-06T00:03:42;101102.79;;;1.64;83.24
57900;BME280;60605;53.716;19.940;2023-04-06T00:08:44;101101.93;;;1.64;83.34
57900;BME280;60605;53.716;19.940;2023-04-06T00:13:46;101100.73;;;1.63;83.42
57900;BME280;60605;53.716;19.940;2023-04-06T00:18:48;101097.81;;;1.62;83.45
57900;BME280;60605;53.716;19.940;2023-04-06T00:23:50;101094.46;;;1.62;83.39
57900;BME280;60605;53.716;19.940;2023-04-06T00:28:52;101092.39;;;1.61;83.39
57900;BME280;60605;53.716;19.940;2023-04-06T00:33:54;101089.62;;;1.60;83.49
57900;BME280;60605;53.716;19.940;2023-04-06T00:38:56;101089.30;;;1.59;83.72
57900;BME280;60605;53.716;19.940;2023-04-06T00:43:57;101088.49;;;1.58;83.74
57900;BME280;60605;53.716;19.940;2023-04-06T00:48:59;101085.51;;;1.57;83.79
57900;BME280;60605;53.716;19.940;2023-04-06T00:54:02;101086.73;;;1.57;83.82
57900;BME280;60605;53.716;19.940;2023-04-06T00:59:04;101082.16;;;1.58;83.99
57900;BME280;60605;53.716;19.940;2023-04-06T01:04:06;101081.09;;;1.58;84.12
57900;BME280;60605;53.716;19.940;2023-04-06T01:09:08;101078.25;;;1.58;84.32
57900;BME280;60605;53.716;19.940;2023-04-06T01:14:10;101074.69;;;1.59;84.46
57900;BME280;60605;53.716;19.940;2023-04-06T01:19:13;101075.55;;;1.60;84.48
57900;BME280;60605;53.716;19.940;2023-04-06T01:24:15;101075.96;;;1.59;84.62
57900;BME280;60605;53.716;19.940;2023-04-06T01:29:17;101070.80;;;1.56;84.42
57900;BME280;60605;53.716;19.940;2023-04-06T01:34:19;101065.96;;;1.54;84.62
57900;BME280;60605;53.716;19.940;2023-04-06T01:39:21;101064.95;;;1.53;84.86
57900;BME280;60605;53.716;19.940;2023-04-06T01:44:23;101066.11;;;1.51;85.05
57900;BME280;60605;53.716;19.940;2023-04-06T01:49:24;101066.60;;;1.49;85.21
57900;BME280;60605;53.716;19.940;2023-04-06T01:54:27;101066.14;;;1.47;85.38
57900;BME280;60605;53.716;19.940;2023-04-06T01:59:28;101070.33;;;1.48;85.62
57900;BME280;60605;53.716;19.940;2023-04-06T02:04:30;101069.45;;;1.48;85.66
57900;BME280;60605;53.716;19.940;2023-04-06T02:09:32;101068.25;;;1.47;85.77
57900;BME280;60605;53.716;19.940;2023-04-06T02:14:34;101065.98;;;1.47;86.02
57900;BME280;60605;53.716;19.940;2023-04-06T02:19:36;101065.15;;;1.46;86.20
57900;BME280;60605;53.716;19.940;2023-04-06T02:24:38;101059.19;;;1.45;86.35
57900;BME280;60605;53.716;19.940;2023-04-06T02:29:40;101063.55;;;1.46;86.92
57900;BME280;60605;53.716;19.940;2023-04-06T02:34:41;101064.58;;;1.47;87.20
57900;BME280;60605;53.716;19.940;2023-04-06T02:39:43;101058.60;;;1.47;87.33
57900;BME280;60605;53.716;19.940;2023-04-06T02:44:45;101061.41;;;1.47;87.60
57900;BME280;60605;53.716;19.940;2023-04-06T02:49:47;101056.66;;;1.47;87.61
57900;BME280;60605;53.716;19.940;2023-04-06T02:54:49;101057.73;;;1.46;87.92
57900;BME280;60605;53.716;19.940;2023-04-06T02:59:52;101060.72;;;1.46;88.30
57900;BME280;60605;53.716;19.940;2023-04-06T03:04:54;101059.34;;;1.46;88.72
57900;BME280;60605;53.716;19.940;2023-04-06T03:09:56;101058.14;;;1.45;89.13
57900;BME280;60605;53.716;19.940;2023-04-06T03:14:58;101057.50;;;1.44;89.42
57900;BME280;60605;53.716;19.940;2023-04-06T03:20:00;101060.54;;;1.43;89.47
57900;BME280;60605;53.716;19.940;2023-04-06T03:25:01;101061.16;;;1.41;89.69
57900;BME280;60605;53.716;19.940;2023-04-06T03:30:05;101061.02;;;1.41;90.07
57900;BME280;60605;53.716;19.940;2023-04-06T03:35:08;101067.01;;;1.41;90.37
57900;BME280;60605;53.716;19.940;2023-04-06T03:40:11;101067.42;;;1.39;90.66
57900;BME280;60605;53.716;19.940;2023-04-06T03:45:13;101070.66;;;1.38;90.91
57900;BME280;60605;53.716;19.940;2023-04-06T03:50:15;101073.70;;;1.37;91.14
57900;BME280;60605;53.716;19.940;2023-04-06T03:55:17;101077.02;;;1.37;91.40
57900;BME280;60605;53.716;19.940;2023-04-06T04:00:20;101075.13;;;1.36;91.97
57900;BME280;60605;53.716;19.940;2023-04-06T04:05:21;101080.79;;;1.36;92.35
57900;BME280;60605;53.716;19.940;2023-04-06T04:10:26;101079.39;;;1.35;92.74
57900;BME280;60605;53.716;19.940;2023-04-06T04:15:28;101079.77;;;1.35;93.29
57900;BME280;60605;53.716;19.940;2023-04-06T04:20:30;101077.84;;;1.35;93.54
57900;BME280;60605;53.716;19.940;2023-04-06T04:25:32;101080.47;;;1.35;93.80
57900;BME280;60605;53.716;19.940;2023-04-06T04:30:34;101082.02;;;1.36;94.11
57900;BME280;60605;53.716;19.940;2023-04-06T04:35:37;101085.26;;;1.38;94.30
57900;BME280;60605;53.716;19.940;2023-04-06T04:40:38;101084.90;;;1.42;94.53
57900;BME280;60605;53.716;19.940;2023-04-06T04:45:41;101086.50;;;1.45;94.41
57900;BME280;60605;53.716;19.940;2023-04-06T04:50:43;101087.17;;;1.49;94.44
57900;BME280;60605;53.716;19.940;2023-04-06T04:55:44;101088.16;;;1.53;94.86
57900;BME280;60605;53.716;19.940;2023-04-06T05:00:46;101088.35;;;1.57;94.98
57900;BME280;60605;53.716;19.940;2023-04-06T05:05:48;101081.77;;;1.62;94.81
57900;BME280;60605;53.716;19.940;2023-04-06T05:10:51;101083.94;;;1.68;95.09
57900;BME280;60605;53.716;19.940;2023-04-06T05:15:52;101087.95;;;1.75;95.12
57900;BME280;60605;53.716;19.940;2023-04-06T05:20:55;101086.45;;;1.84;95.04
57900;BME280;60605;53.716;19.940;2023-04-06T05:25:57;101092.10;;;1.91;94.79
57900;BME280;60605;53.716;19.940;2023-04-06T05:30:59;101090.83;;;1.99;94.68
57900;BME280;60605;53.716;19.940;2023-04-06T05:36:01;101088.15;;;2.09;94.60
57900;BME280;60605;53.716;19.940;2023-04-06T05:41:05;101085.84;;;2.23;94.25
57900;BME280;60605;53.716;19.940;2023-04-06T05:46:08;101080.61;;;2.35;94.01
57900;BME280;60605;53.716;19.940;2023-04-06T05:51:10;101079.14;;;2.49;93.57
57900;BME280;60605;53.716;19.940;2023-04-06T05:56:12;101079.95;;;2.60;92.78
57900;BME280;60605;53.716;19.940;2023-04-06T06:01:14;101083.34;;;2.79;92.52
57900;BME280;60605;53.716;19.940;2023-04-06T06:06:16;101079.80;;;3.01;91.85
57900;BME280;60605;53.716;19.940;2023-04-06T06:11:17;101082.77;;;3.36;91.48
57900;BME280;60605;53.716;19.940;2023-04-06T06:16:19;101088.32;;;3.68;89.22
57900;BME280;60605;53.716;19.940;2023-04-06T06:21:22;101081.64;;;4.00;88.37
57900;BME280;60605;53.716;19.940;2023-04-06T06:26:25;101074.21;;;4.34;86.65
57900;BME280;60605;53.716;19.940;2023-04-06T06:31:26;101070.35;;;4.82;84.39
57900;BME280;60605;53.716;19.940;2023-04-06T06:36:29;101068.75;;;5.31;82.46
57900;BME280;60605;53.716;19.940;2023-04-06T06:41:32;101072.17;;;6.01;79.43
57900;BME280;60605;53.716;19.940;2023-04-06T06:46:34;101070.50;;;6.56;73.34
57900;BME280;60605;53.716;19.940;2023-04-06T06:51:36;101066.41;;;6.63;71.44
57900;BME280;60605;53.716;19.940;2023-04-06T06:56:39;101060.65;;;6.42;71.13
57900;BME280;60605;53.716;19.940;2023-04-06T07:01:41;101062.58;;;6.25;72.14
57900;BME280;60605;53.716;19.940;2023-04-06T07:06:43;101065.41;;;6.10;71.49
57900;BME280;60605;53.716;19.940;2023-04-06T07:11:45;101065.11;;;5.61;69.22
57900;BME280;60605;53.716;19.940;2023-04-06T07:16:47;101065.11;;;5.27;69.87
57900;BME280;60605;53.716;19.940;2023-04-06T07:21:50;101066.83;;;5.00;69.70
57900;BME280;60605;53.716;19.940;2023-04-06T07:26:52;101064.02;;;4.78;68.38
57900;BME280;60605;53.716;19.940;2023-04-06T07:31:54;101054.37;;;4.66;68.71
57900;BME280;60605;53.716;19.940;2023-04-06T07:36:56;101057.20;;;4.55;68.78
57900;BME280;60605;53.716;19.940;2023-04-06T07:41:58;101055.29;;;4.65;69.39
57900;BME280;60605;53.716;19.940;2023-04-06T07:46:59;101057.23;;;4.82;68.34
57900;BME280;60605;53.716;19.940;2023-04-06T07:52:03;101057.34;;;4.94;67.67
57900;BME280;60605;53.716;19.940;2023-04-06T07:57:05;101058.48;;;5.15;66.32
57900;BME280;60605;53.716;19.940;2023-04-06T08:02:07;101057.50;;;6.18;62.72
57900;BME280;60605;53.716;19.940;2023-04-06T08:07:09;101052.95;;;6.46;61.54
57900;BME280;60605;53.716;19.940;2023-04-06T08:12:11;101052.98;;;6.48;59.22
57900;BME280;60605;53.716;19.940;2023-04-06T08:17:13;101052.97;;;6.63;58.86
57900;BME280;60605;53.716;19.940;2023-04-06T08:22:16;101052.52;;;6.26;59.13
57900;BME280;60605;53.716;19.940;2023-04-06T08:27:18;101042.86;;;5.87;60.13
57900;BME280;60605;53.716;19.940;2023-04-06T08:32:19;101039.14;;;5.63;60.62
57900;BME280;60605;53.716;19.940;2023-04-06T08:37:22;101038.12;;;5.60;61.61
57900;BME280;60605;53.716;19.940;2023-04-06T08:42:25;101039.06;;;5.62;62.15
57900;BME280;60605;53.716;19.940;2023-04-06T08:47:30;101040.61;;;5.63;62.65
57900;BME280;60605;53.716;19.940;2023-04-06T08:52:32;101042.20;;;5.81;62.38
57900;BME280;60605;53.716;19.940;2023-04-06T08:57:36;101034.13;;;6.11;62.37
57900;BME280;60605;53.716;19.940;2023-04-06T09:02:39;101036.20;;;6.42;61.66
57900;BME280;60605;53.716;19.940;2023-04-06T09:07:42;101037.00;;;6.53;60.92
57900;BME280;60605;53.716;19.940;2023-04-06T09:12:44;101039.95;;;6.78;61.21
57900;BME280;60605;53.716;19.940;2023-04-06T09:17:46;101037.38;;;7.18;60.29
57900;BME280;60605;53.716;19.940;2023-04-06T09:22:49;101039.23;;;7.34;58.89
57900;BME280;60605;53.716;19.940;2023-04-06T09:28:04;101038.94;;;7.11;59.28
57900;BME280;60605;53.716;19.940;2023-04-06T09:33:10;101037.37;;;6.84;59.90
57900;BME280;60605;53.716;19.940;2023-04-06T09:38:11;101034.14;;;6.65;60.28
57900;BME280;60605;53.716;19.940;2023-04-06T09:43:28;101028.54;;;6.62;60.50
57900;BME280;60605;53.716;19.940;2023-04-06T09:48:34;101032.48;;;6.61;60.71
57900;BME280;60605;53.716;19.940;2023-04-06T09:53:39;101029.15;;;6.48;61.20
57900;BME280;60605;53.716;19.940;2023-04-06T09:58:45;101025.70;;;6.24;61.65
57900;BME280;60605;53.716;19.940;2023-04-06T10:09:15;101018.71;;;6.18;62.49
57900;BME280;60605;53.716;19.940;2023-04-06T10:14:17;101015.31;;;6.33;62.55
57900;BME280;60605;53.716;19.940;2023-04-06T10:19:24;101014.77;;;6.63;61.27
57900;BME280;60605;53.716;19.940;2023-04-06T10:24:27;101010.40;;;6.82;60.86
57900;BME280;60605;53.716;19.940;2023-04-06T10:29:44;101007.37;;;6.91;60.07
57900;BME280;60605;53.716;19.940;2023-04-06T10:34:47;101007.08;;;6.98;60.20
57900;BME280;60605;53.716;19.940;2023-04-06T10:39:52;101005.34;;;7.00;59.70
57900;BME280;60605;53.716;19.940;2023-04-06T10:44:59;101001.73;;;7.00;59.77
57900;BME280;60605;53.716;19.940;2023-04-06T10:50:01;100991.68;;;6.85;59.96
57900;BME280;60605;53.716;19.940;2023-04-06T10:55:08;100984.52;;;6.64;60.85
57900;BME280;60605;53.716;19.940;2023-04-06T11:00:12;100980.30;;;6.41;61.08
57900;BME280;60605;53.716;19.940;2023-04-06T11:05:15;100975.04;;;6.19;62.28
57900;BME280;60605;53.716;19.940;2023-04-06T11:10:21;100972.30;;;6.07;63.23
57900;BME280;60605;53.716;19.940;2023-04-06T11:15:24;100965.81;;;5.91;63.61
57900;BME280;60605;53.716;19.940;2023-04-06T11:20:26;100956.17;;;5.76;64.45
57900;BME280;60605;53.716;19.940;2023-04-06T11:25:29;100953.09;;;5.78;65.31
57900;BME280;60605;53.716;19.940;2023-04-06T11:30:34;100951.56;;;5.99;65.96
57900;BME280;60605;53.716;19.940;2023-04-06T11:35:37;100954.25;;;6.24;65.66
57900;BME280;60605;53.716;19.940;2023-04-06T11:40:39;100943.26;;;6.46;64.95
57900;BME280;60605;53.716;19.940;2023-04-06T11:45:43;100942.95;;;6.62;64.60
57900;BME280;60605;53.716;19.940;2023-04-06T11:50:55;100942.91;;;6.84;64.45
57900;BME280;60605;53.716;19.940;2023-04-06T11:55:58;100936.70;;;7.05;62.89
57900;BME280;60605;53.716;19.940;2023-04-06T12:01:04;100926.09;;;7.45;62.05
57900;BME280;60605;53.716;19.940;2023-04-06T12:06:06;100927.25;;;7.69;62.19
57900;BME280;60605;53.716;19.940;2023-04-06T12:11:09;100920.70;;;7.71;61.14
57900;BME280;60605;53.716;19.940;2023-04-06T12:16:10;100912.55;;;7.52;61.43
57900;BME280;60605;53.716;19.940;2023-04-06T12:21:13;100905.27;;;7.45;62.16
57900;BME280;60605;53.716;19.940;2023-04-06T12:26:15;100908.58;;;7.41;61.87
57900;BME280;60605;53.716;19.940;2023-04-06T12:31:18;100905.88;;;7.16;61.99
57900;BME280;60605;53.716;19.940;2023-04-06T12:36:20;100905.67;;;6.81;62.48
57900;BME280;60605;53.716;19.940;2023-04-06T12:41:23;100901.83;;;6.37;63.62
57900;BME280;60605;53.716;19.940;2023-04-06T12:46:26;100899.98;;;6.17;64.97
57900;BME280;60605;53.716;19.940;2023-04-06T12:51:29;100902.41;;;6.05;65.63
57900;BME280;60605;53.716;19.940;2023-04-06T12:56:31;100900.02;;;6.14;66.15
57900;BME280;60605;53.716;19.940;2023-04-06T13:01:33;100894.38;;;6.30;66.19
57900;BME280;60605;53.716;19.940;2023-04-06T13:06:35;100892.00;;;6.41;65.72
57900;BME280;60605;53.716;19.940;2023-04-06T13:11:37;100876.11;;;6.37;65.20
57900;BME280;60605;53.716;19.940;2023-04-06T13:16:40;100862.89;;;6.36;65.66
57900;BME280;60605;53.716;19.940;2023-04-06T13:21:42;100858.33;;;6.45;66.02
57900;BME280;60605;53.716;19.940;2023-04-06T13:26:44;100853.35;;;6.43;65.80
57900;BME280;60605;53.716;19.940;2023-04-06T13:31:47;100854.45;;;6.42;66.73
57900;BME280;60605;53.716;19.940;2023-04-06T13:36:49;100856.65;;;6.46;66.62
57900;BME280;60605;53.716;19.940;2023-04-06T13:41:53;100850.00;;;6.33;67.11
57900;BME280;60605;53.716;19.940;2023-04-06T13:46:58;100851.08;;;6.30;67.82
57900;BME280;60605;53.716;19.940;2023-04-06T13:52:01;100845.77;;;6.33;68.22
57900;BME280;60605;53.716;19.940;2023-04-06T13:57:03;100836.77;;;6.34;68.34
57900;BME280;60605;53.716;19.940;2023-04-06T14:02:08;100838.43;;;6.34;68.56
57900;BME280;60605;53.716;19.940;2023-04-06T14:07:11;100839.52;;;6.26;69.05
57900;BME280;60605;53.716;19.940;2023-04-06T14:12:12;100842.02;;;6.13;69.40
57900;BME280;60605;53.716;19.940;2023-04-06T14:17:14;100840.80;;;6.04;70.18
57900;BME280;60605;53.716;19.940;2023-04-06T14:22:17;100839.16;;;5.97;70.61
57900;BME280;60605;53.716;19.940;2023-04-06T14:27:19;100835.03;;;5.88;71.02
57900;BME280;60605;53.716;19.940;2023-04-06T14:32:21;100834.09;;;5.78;71.52
57900;BME280;60605;53.716;19.940;2023-04-06T14:37:23;100833.02;;;5.69;71.99
57900;BME280;60605;53.716;19.940;2023-04-06T14:42:25;100820.23;;;5.66;72.78
57900;BME280;60605;53.716;19.940;2023-04-06T14:47:27;100816.77;;;5.73;73.12
57900;BME280;60605;53.716;19.940;2023-04-06T14:52:29;100815.20;;;5.75;73.05
57900;BME280;60605;53.716;19.940;2023-04-06T14:57:33;100818.10;;;5.74;73.22
57900;BME280;60605;53.716;19.940;2023-04-06T15:02:36;100809.02;;;5.75;73.57
57900;BME280;60605;53.716;19.940;2023-04-06T15:07:40;100805.43;;;5.75;73.55
57900;BME280;60605;53.716;19.940;2023-04-06T15:12:42;100803.11;;;5.73;73.71
57900;BME280;60605;53.716;19.940;2023-04-06T15:17:44;100805.91;;;5.64;74.11
57900;BME280;60605;53.716;19.940;2023-04-06T15:22:46;100802.84;;;5.49;74.48
57900;BME280;60605;53.716;19.940;2023-04-06T15:27:48;100798.77;;;5.37;75.09
57900;BME280;60605;53.716;19.940;2023-04-06T15:32:57;100795.09;;;5.24;75.80
57900;BME280;60605;53.716;19.940;2023-04-06T15:38:00;100792.36;;;5.12;76.52
57900;BME280;60605;53.716;19.940;2023-04-06T15:43:03;100789.25;;;4.98;76.80
57900;BME280;60605;53.716;19.940;2023-04-06T15:48:05;100787.61;;;4.88;77.35
57900;BME280;60605;53.716;19.940;2023-04-06T15:53:08;100780.03;;;4.81;77.63
57900;BME280;60605;53.716;19.940;2023-04-06T15:58:11;100772.27;;;4.73;78.04
57900;BME280;60605;53.716;19.940;2023-04-06T16:03:12;100763.05;;;4.73;78.29
57900;BME280;60605;53.716;19.940;2023-04-06T16:08:15;100772.10;;;4.75;78.24
57900;BME280;60605;53.716;19.940;2023-04-06T16:13:17;100778.14;;;4.77;78.00
57900;BME280;60605;53.716;19.940;2023-04-06T16:18:19;100776.51;;;4.78;77.20
57900;BME280;60605;53.716;19.940;2023-04-06T16:23:21;100775.31;;;4.74;76.12
57900;BME280;60605;53.716;19.940;2023-04-06T16:28:23;100774.33;;;4.71;75.69
57900;BME280;60605;53.716;19.940;2023-04-06T16:33:26;100773.02;;;4.61;75.61
57900;BME280;60605;53.716;19.940;2023-04-06T16:38:28;100772.39;;;4.55;76.00
57900;BME280;60605;53.716;19.940;2023-04-06T16:43:36;100769.29;;;4.51;76.09
57900;BME280;60605;53.716;19.940;2023-04-06T16:48:38;100762.80;;;4.45;75.92
57900;BME280;60605;53.716;19.940;2023-04-06T16:53:40;100766.08;;;4.36;76.15
57900;BME280;60605;53.716;19.940;2023-04-06T16:58:43;100764.96;;;4.29;76.58
57900;BME280;60605;53.716;19.940;2023-04-06T17:03:46;100767.55;;;4.22;76.77
57900;BME280;60605;53.716;19.940;2023-04-06T17:08:49;100774.49;;;4.13;77.10
57900;BME280;60605;53.716;19.940;2023-04-06T17:13:52;100772.38;;;4.05;77.22
57900;BME280;60605;53.716;19.940;2023-04-06T17:18:53;100774.30;;;3.97;77.41
57900;BME280;60605;53.716;19.940;2023-04-06T17:23:56;100783.02;;;3.88;77.84
57900;BME280;60605;53.716;19.940;2023-04-06T17:28:58;100792.48;;;3.81;78.35
57900;BME280;60605;53.716;19.940;2023-04-06T17:34:01;100804.58;;;3.74;78.81
57900;BME280;60605;53.716;19.940;2023-04-06T17:39:04;100801.17;;;3.70;79.22
57900;BME280;60605;53.716;19.940;2023-04-06T17:44:06;100793.45;;;3.66;79.67
57900;BME280;60605;53.716;19.940;2023-04-06T17:49:08;100799.44;;;3.63;79.85
57900;BME280;60605;53.716;19.940;2023-04-06T17:54:10;100803.73;;;3.60;80.36
57900;BME280;60605;53.716;19.940;2023-04-06T17:59:13;100793.40;;;3.58;80.96
57900;BME280;60605;53.716;19.940;2023-04-06T18:04:16;100792.78;;;3.57;81.24
57900;BME280;60605;53.716;19.940;2023-04-06T18:09:19;100790.55;;;3.56;81.77
57900;BME280;60605;53.716;19.940;2023-04-06T18:14:22;100788.65;;;3.55;82.27
57900;BME280;60605;53.716;19.940;2023-04-06T18:19:25;100791.65;;;3.55;82.77
57900;BME280;60605;53.716;19.940;2023-04-06T18:24:31;100788.89;;;3.54;83.20
57900;BME280;60605;53.716;19.940;2023-04-06T18:29:44;100794.34;;;3.52;83.67
57900;BME280;60605;53.716;19.940;2023-04-06T18:34:48;100798.06;;;3.52;84.24
57900;BME280;60605;53.716;19.940;2023-04-06T18:39:51;100798.77;;;3.52;85.16
57900;BME280;60605;53.716;19.940;2023-04-06T18:44:56;100800.49;;;3.52;85.61
57900;BME280;60605;53.716;19.940;2023-04-06T18:49:59;100802.70;;;3.53;86.87
57900;BME280;60605;53.716;19.940;2023-04-06T18:55:01;100805.09;;;3.52;88.81
57900;BME280;60605;53.716;19.940;2023-04-06T19:00:05;100794.63;;;3.50;90.76
57900;BME280;60605;53.716;19.940;2023-04-06T19:05:12;100795.34;;;3.47;91.72
57900;BME280;60605;53.716;19.940;2023-04-06T19:10:17;100800.50;;;3.44;93.18
57900;BME280;60605;53.716;19.940;2023-04-06T19:15:20;100809.11;;;3.42;93.61
57900;BME280;60605;53.716;19.940;2023-04-06T19:20:23;100814.08;;;3.41;94.25
57900;BME280;60605;53.716;19.940;2023-04-06T19:25:25;100813.23;;;3.40;95.05
57900;BME280;60605;53.716;19.940;2023-04-06T19:30:28;100819.18;;;3.41;94.85
57900;BME280;60605;53.716;19.940;2023-04-06T19:35:34;100821.33;;;3.41;96.00
57900;BME280;60605;53.716;19.940;2023-04-06T19:40:37;100818.95;;;3.39;96.60
57900;BME280;60605;53.716;19.940;2023-04-06T19:45:41;100807.41;;;3.38;97.69
57900;BME280;60605;53.716;19.940;2023-04-06T19:50:44;100799.67;;;3.37;98.56
57900;BME280;60605;53.716;19.940;2023-04-06T19:55:47;100803.85;;;3.35;99.64
57900;BME280;60605;53.716;19.940;2023-04-06T20:00:51;100796.75;;;3.33;99.95
57900;BME280;60605;53.716;19.940;2023-04-06T20:05:53;100790.40;;;3.30;100.00
57900;BME280;60605;53.716;19.940;2023-04-06T20:11:15;100786.52;;;3.30;100.00
57900;BME280;60605;53.716;19.940;2023-04-06T20:16:18;100784.11;;;3.29;100.00
57900;BME280;60605;53.716;19.940;2023-04-06T20:21:21;100779.70;;;3.29;100.00
57900;BME280;60605;53.716;19.940;2023-04-06T20:26:25;100782.11;;;3.27;100.00
57900;BME280;60605;53.716;19.940;2023-04-06T20:31:29;100777.88;;;3.27;100.00
57900;BME280;60605;53.716;19.940;2023-04-06T20:36:35;100768.96;;;3.28;100.00
57900;BME280;60605;53.716;19.940;2023-04-06T20:41:41;100761.45;;;3.27;100.00
57900;BME280;60605;53.716;19.940;2023-04-06T20:46:44;100761.58;;;3.25;100.00
57900;BME280;60605;53.716;19.940;2023-04-06T20:51:48;100761.41;;;3.25;100.00
57900;BME280;60605;53.716;19.940;2023-04-06T20:56:50;100754.73;;;3.25;100.00
57900;BME280;60605;53.716;19.940;2023-04-06T21:01:52;100750.79;;;3.26;100.00
57900;BME280;60605;53.716;19.940;2023-04-06T21:06:54;100750.14;;;3.27;100.00
57900;BME280;60605;53.716;19.940;2023-04-06T21:11:56;100748.09;;;3.29;100.00
57900;BME280;60605;53.716;19.940;2023-04-06T21:16:59;100741.41;;;3.32;100.00
57900;BME280;60605;53.716;19.940;2023-04-06T21:22:01;100741.07;;;3.31;100.00
57900;BME280;60605;53.716;19.940;2023-04-06T21:27:04;100732.35;;;3.33;100.00
57900;BME280;60605;53.716;19.940;2023-04-06T21:32:06;100718.65;;;3.34;100.00
57900;BME280;60605;53.716;19.940;2023-04-06T21:37:08;100707.10;;;3.35;100.00
57900;BME280;60605;53.716;19.940;2023-04-06T21:42:11;100711.63;;;3.36;100.00
57900;BME280;60605;53.716;19.940;2023-04-06T21:47:13;100706.41;;;3.38;100.00
57900;BME280;60605;53.716;19.940;2023-04-06T21:52:16;100698.98;;;3.38;100.00
57900;BME280;60605;53.716;19.940;2023-04-06T21:57:17;100692.91;;;3.39;100.00
57900;BME280;60605;53.716;19.940;2023-04-06T22:02:19;100687.72;;;3.40;100.00
57900;BME280;60605;53.716;19.940;2023-04-06T22:07:22;100683.57;;;3.42;100.00
57900;BME280;60605;53.716;19.940;2023-04-06T22:12:24;100676.44;;;3.43;100.00
57900;BME280;60605;53.716;19.940;2023-04-06T22:17:27;100678.78;;;3.45;100.00
57900;BME280;60605;53.716;19.940;2023-04-06T22:22:29;100677.23;;;3.47;100.00
57900;BME280;60605;53.716;19.940;2023-04-06T22:27:31;100671.31;;;3.48;100.00
57900;BME280;60605;53.716;19.940;2023-04-06T22:32:42;100668.47;;;3.51;100.00
57900;BME280;60605;53.716;19.940;2023-04-06T22:37:44;100661.88;;;3.52;100.00
57900;BME280;60605;53.716;19.940;2023-04-06T22:42:46;100657.32;;;3.54;100.00
57900;BME280;60605;53.716;19.940;2023-04-06T22:47:48;100657.43;;;3.55;100.00
57900;BME280;60605;53.716;19.940;2023-04-06T22:52:50;100652.46;;;3.56;100.00
57900;BME280;60605;53.716;19.940;2023-04-06T22:57:52;100646.60;;;3.56;100.00
57900;BME280;60605;53.716;19.940;2023-04-06T23:02:54;100645.67;;;3.57;100.00
57900;BME280;60605;53.716;19.940;2023-04-06T23:07:56;100639.42;;;3.58;100.00
57900;BME280;60605;53.716;19.940;2023-04-06T23:12:58;100635.10;;;3.59;100.00
57900;BME280;60605;53.716;19.940;2023-04-06T23:18:00;100633.95;;;3.61;100.00
57900;BME280;60605;53.716;19.940;2023-04-06T23:23:03;100633.70;;;3.62;100.00
57900;BME280;60605;53.716;19.940;2023-04-06T23:28:04;100623.34;;;3.64;100.00
57900;BME280;60605;53.716;19.940;2023-04-06T23:33:07;100620.52;;;3.66;100.00
57900;BME280;60605;53.716;19.940;2023-04-06T23:38:09;100620.85;;;3.67;100.00
57900;BME280;60605;53.716;19.940;2023-04-06T23:43:13;100624.17;;;3.70;100.00
57900;BME280;60605;53.716;19.940;2023-04-06T23:48:15;100620.98;;;3.73;100.00
57900;BME280;60605;53.716;19.940;2023-04-06T23:53:17;100611.49;;;3.74;100.00
57900;BME280;60605;53.716;19.940;2023-04-06T23:58:19;100606.79;;;3.76;100.00
